createdAt,value
2022-09-23T00:00:59.370Z,4.13
2022-09-23T00:03:28.165Z,4.45
2022-09-23T00:06:22.180Z,3.63
2022-09-23T00:08:49.646Z,3.60
2022-09-23T00:11:21.659Z,4.07
2022-09-23T00:13:50.256Z,4.37
2022-09-23T00:16:20.894Z,3.78
2022-09-23T00:18:49.318Z,3.38
2022-09-23T00:21:15.723Z,3.55
2022-09-23T00:23:43.156Z,3.80
2022-09-23T00:26:11.996Z,2.97
2022-09-23T00:28:38.488Z,3.40
2022-09-23T00:31:10.132Z,3.55
2022-09-23T00:33:36.987Z,3.47
2022-09-23T00:36:09.211Z,3.30
2022-09-23T00:38:35.625Z,3.43
2022-09-23T00:41:02.784Z,3.90
2022-09-23T00:43:47.386Z,3.85
2022-09-23T00:46:35.254Z,3.50
2022-09-23T00:49:06.805Z,3.95
2022-09-23T00:51:38.546Z,3.67
2022-09-23T00:54:06.448Z,3.38
2022-09-23T00:56:34.472Z,3.60
2022-09-23T00:59:01.744Z,3.67
2022-09-23T01:01:28.250Z,3.63
2022-09-23T01:03:56.921Z,3.97
2022-09-23T01:06:23.424Z,4.00
2022-09-23T01:08:50.676Z,3.55
2022-09-23T01:11:45.441Z,3.47
2022-09-23T01:14:32.091Z,3.60
2022-09-23T01:17:28.280Z,3.63
2022-09-23T01:20:19.275Z,3.50
2022-09-23T01:23:01.440Z,3.40
2022-09-23T01:25:47.114Z,3.30
2022-09-23T01:28:57.113Z,3.40
2022-09-23T01:31:37.978Z,3.13
2022-09-23T01:34:19.851Z,3.88
2022-09-23T01:36:56.866Z,4.05
2022-09-23T01:39:36.731Z,3.45
2022-09-23T01:42:29.487Z,3.63
2022-09-23T01:45:12.924Z,3.47
2022-09-23T01:47:49.692Z,3.38
2022-09-23T01:50:40.692Z,3.67
2022-09-23T01:53:14.586Z,3.95
2022-09-23T01:55:47.442Z,4.10
2022-09-23T01:58:26.959Z,3.60
2022-09-23T02:00:59.311Z,3.90
2022-09-23T02:03:33.883Z,3.50
2022-09-23T02:06:11.422Z,3.38
2022-09-23T02:09:13.674Z,3.17
2022-09-23T02:11:41.955Z,3.50
2022-09-23T02:14:19.105Z,3.50
2022-09-23T02:16:49.977Z,3.28
2022-09-23T02:19:27.059Z,3.00
2022-09-23T02:22:05.591Z,3.00
2022-09-23T02:24:37.412Z,3.10
2022-09-23T02:27:30.207Z,3.03
2022-09-23T02:30:18.981Z,3.53
2022-09-23T02:33:01.081Z,3.50
2022-09-23T02:35:37.024Z,3.60
2022-09-23T02:38:12.422Z,3.80
2022-09-23T02:40:54.276Z,3.40
2022-09-23T02:43:32.099Z,3.08
2022-09-23T02:45:58.539Z,3.33
2022-09-23T02:48:49.104Z,3.20
2022-09-23T02:51:15.843Z,3.10
2022-09-23T02:53:43.201Z,3.15
2022-09-23T02:56:19.493Z,2.70
2022-09-23T02:58:48.327Z,2.63
2022-09-23T03:01:35.952Z,2.90
2022-09-23T03:04:15.890Z,2.70
2022-09-23T03:07:01.609Z,2.83
2022-09-23T03:09:34.902Z,3.80
2022-09-23T03:12:49.217Z,4.00
2022-09-23T03:15:30.226Z,3.72
2022-09-23T03:18:31.563Z,3.40
2022-09-23T03:21:07.154Z,3.20
2022-09-23T03:23:36.979Z,3.15
2022-09-23T03:26:12.560Z,3.20
2022-09-23T03:28:43.588Z,3.70
2022-09-23T03:31:12.652Z,3.80
2022-09-23T03:33:43.802Z,3.67
2022-09-23T03:36:31.589Z,3.60
2022-09-23T03:39:04.251Z,3.72
2022-09-23T03:41:37.846Z,3.58
2022-09-23T03:44:04.779Z,3.43
2022-09-23T03:46:33.374Z,3.78
2022-09-23T03:49:08.114Z,3.88
2022-09-23T03:51:34.441Z,4.05
2022-09-23T03:54:00.796Z,3.60
2022-09-23T03:56:27.841Z,4.00
2022-09-23T03:58:54.156Z,4.13
2022-09-23T04:01:20.928Z,4.65
2022-09-23T04:03:47.276Z,4.35
2022-09-23T04:06:13.600Z,4.38
2022-09-23T04:08:39.954Z,3.93
2022-09-23T04:11:06.723Z,4.63
2022-09-23T04:13:34.268Z,4.68
2022-09-23T04:16:00.708Z,4.88
2022-09-23T04:18:27.114Z,4.80
2022-09-23T04:20:58.684Z,4.67
2022-09-23T04:23:26.554Z,4.63
2022-09-23T04:25:53.728Z,4.00
2022-09-23T04:28:21.246Z,4.75
2022-09-23T04:30:48.762Z,5.13
2022-09-23T04:33:15.900Z,6.17
2022-09-23T04:35:43.413Z,5.75
2022-09-23T04:38:12.494Z,6.20
2022-09-23T04:40:39.167Z,6.40
2022-09-23T04:43:05.821Z,6.78
2022-09-23T04:45:32.163Z,6.83
2022-09-23T04:47:59.221Z,7.38
2022-09-23T04:50:26.372Z,8.27
2022-09-23T04:52:53.915Z,7.03
2022-09-23T04:55:20.275Z,6.93
2022-09-23T04:57:46.974Z,7.40
2022-09-23T05:00:15.121Z,7.68
2022-09-23T05:02:45.880Z,7.93
2022-09-23T05:05:13.242Z,7.60
2022-09-23T05:07:40.335Z,6.88
2022-09-23T05:10:07.626Z,7.73
2022-09-23T05:12:33.993Z,7.25
2022-09-23T05:15:00.463Z,7.63
2022-09-23T05:17:26.880Z,8.07
2022-09-23T05:19:53.240Z,7.25
2022-09-23T05:22:19.588Z,7.77
2022-09-23T05:24:46.057Z,7.72
2022-09-23T05:27:12.684Z,7.70
2022-09-23T05:29:39.128Z,7.00
2022-09-23T05:32:05.519Z,7.43
2022-09-23T05:34:32.257Z,7.33
2022-09-23T05:36:58.580Z,6.22
2022-09-23T05:39:24.961Z,6.45
2022-09-23T05:41:52.845Z,5.28
2022-09-23T05:44:19.212Z,6.88
2022-09-23T05:46:45.595Z,7.67
2022-09-23T05:49:12.096Z,7.90
2022-09-23T05:51:38.569Z,8.55
2022-09-23T05:54:05.721Z,8.35
2022-09-23T05:56:33.703Z,7.68
2022-09-23T05:59:01.736Z,7.73
2022-09-23T06:01:32.148Z,8.13
2022-09-23T06:03:59.553Z,8.05
2022-09-23T06:06:31.842Z,7.80
2022-09-23T06:08:59.378Z,7.88
2022-09-23T06:11:26.440Z,8.80
2022-09-23T06:14:00.836Z,7.63
2022-09-23T06:16:28.496Z,8.00
2022-09-23T06:18:54.972Z,7.28
2022-09-23T06:21:21.291Z,8.52
2022-09-23T06:23:47.664Z,7.70
2022-09-23T06:26:15.655Z,7.78
2022-09-23T06:28:44.081Z,8.75
2022-09-23T06:31:15.668Z,8.63
2022-09-23T06:33:44.777Z,8.80
2022-09-23T06:36:13.402Z,8.80
2022-09-23T06:38:48.419Z,9.10
2022-09-23T06:41:16.088Z,8.35
2022-09-23T06:43:42.455Z,9.55
2022-09-23T06:46:08.903Z,8.55
2022-09-23T06:48:35.614Z,8.90
2022-09-23T06:51:04.849Z,9.00
2022-09-23T06:53:34.710Z,8.77
2022-09-23T06:56:04.024Z,9.80
2022-09-23T06:58:31.832Z,9.25
2022-09-23T07:01:07.271Z,8.80
2022-09-23T07:03:34.347Z,9.05
2022-09-23T07:06:01.831Z,9.10
2022-09-23T07:08:29.600Z,9.93
2022-09-23T07:10:58.013Z,9.50
2022-09-23T07:13:24.980Z,9.87
2022-09-23T07:15:56.051Z,9.88
2022-09-23T07:18:25.613Z,9.68
2022-09-23T07:20:53.089Z,9.77
2022-09-23T07:23:19.883Z,9.32
2022-09-23T07:25:50.163Z,10.00
2022-09-23T07:28:16.709Z,9.73
2022-09-23T07:30:56.407Z,10.25
2022-09-23T07:33:32.139Z,9.65
2022-09-23T07:35:59.113Z,10.20
2022-09-23T07:38:31.299Z,9.77
2022-09-23T07:41:06.917Z,9.98
2022-09-23T07:43:33.379Z,9.52
2022-09-23T07:46:03.017Z,8.95
2022-09-23T07:48:34.136Z,9.93
2022-09-23T07:51:05.585Z,9.60
2022-09-23T07:53:32.360Z,10.02
2022-09-23T07:55:59.352Z,9.85
2022-09-23T07:58:26.142Z,9.88
2022-09-23T08:00:53.569Z,9.90
2022-09-23T08:03:20.271Z,9.30
2022-09-23T08:05:46.681Z,8.95
2022-09-23T08:08:14.041Z,8.70
2022-09-23T08:10:40.442Z,9.65
2022-09-23T08:13:06.894Z,9.18
2022-09-23T08:15:33.594Z,9.00
2022-09-23T08:18:00.788Z,8.88
2022-09-23T08:20:47.764Z,8.60
2022-09-23T08:23:16.087Z,8.73
2022-09-23T08:25:46.301Z,9.02
2022-09-23T08:28:18.601Z,8.40
2022-09-23T08:30:48.817Z,8.13
2022-09-23T08:33:19.636Z,7.88
2022-09-23T08:35:49.188Z,8.73
2022-09-23T08:38:15.523Z,7.93
2022-09-23T08:40:48.417Z,8.10
2022-09-23T08:43:27.316Z,7.93
2022-09-23T08:45:57.293Z,7.80
2022-09-23T08:48:36.884Z,7.32
2022-09-23T08:51:12.564Z,7.53
2022-09-23T08:53:40.302Z,7.53
2022-09-23T08:56:14.766Z,7.32
2022-09-23T08:59:03.488Z,6.95
2022-09-23T09:01:42.274Z,6.50
2022-09-23T09:04:36.163Z,6.93
2022-09-23T09:07:35.699Z,6.47
2022-09-23T09:10:12.771Z,6.75
2022-09-23T09:12:46.228Z,6.72
2022-09-23T09:15:25.150Z,6.80
2022-09-23T09:17:59.165Z,6.78
2022-09-23T09:20:32.244Z,6.60
2022-09-23T09:23:02.583Z,7.00
2022-09-23T09:25:49.421Z,6.00
2022-09-23T09:28:30.772Z,6.53
2022-09-23T09:31:00.696Z,6.90
2022-09-23T09:33:36.833Z,6.37
2022-09-23T09:36:24.839Z,6.40
2022-09-23T09:38:53.236Z,6.63
2022-09-23T09:41:21.425Z,5.38
2022-09-23T09:43:57.603Z,5.90
2022-09-23T09:46:39.271Z,6.50
2022-09-23T09:49:41.054Z,6.05
2022-09-23T09:52:32.283Z,6.20
2022-09-23T09:55:26.773Z,5.95
2022-09-23T09:58:05.252Z,6.03
2022-09-23T10:00:38.160Z,6.00
2022-09-23T10:03:33.016Z,6.07
2022-09-23T10:06:00.065Z,5.72
2022-09-23T10:08:34.330Z,6.13
2022-09-23T10:11:15.029Z,5.88
2022-09-23T10:13:42.493Z,5.30
2022-09-23T10:16:09.409Z,5.13
2022-09-23T10:18:50.184Z,5.18
2022-09-23T10:21:26.934Z,5.32
2022-09-23T10:23:58.235Z,5.53
2022-09-23T10:26:46.142Z,5.30
2022-09-23T10:29:32.257Z,5.25
2022-09-23T10:32:27.354Z,5.55
2022-09-23T10:35:08.948Z,5.15
2022-09-23T10:37:48.113Z,4.93
2022-09-23T10:40:36.262Z,5.57
2022-09-23T10:43:30.166Z,4.45
2022-09-23T10:46:23.558Z,4.15
2022-09-23T10:49:21.964Z,4.55
2022-09-23T10:52:00.115Z,4.85
2022-09-23T10:55:04.261Z,4.53
2022-09-23T10:57:52.152Z,4.32
2022-09-23T11:00:41.655Z,4.78
2022-09-23T11:03:32.122Z,4.90
2022-09-23T11:06:11.267Z,4.10
2022-09-23T11:09:13.109Z,4.53
2022-09-23T11:12:03.640Z,4.70
2022-09-23T11:14:52.963Z,4.68
2022-09-23T11:17:31.608Z,5.55
2022-09-23T11:20:22.996Z,5.07
2022-09-23T11:23:07.627Z,4.90
2022-09-23T11:25:56.345Z,5.28
2022-09-23T11:28:51.985Z,4.82
2022-09-23T11:31:37.264Z,5.05
2022-09-23T11:34:22.204Z,5.43
2022-09-23T11:37:07.053Z,5.03
2022-09-23T11:39:50.260Z,5.55
2022-09-23T11:42:25.968Z,5.68
2022-09-23T11:45:00.075Z,6.13
2022-09-23T11:47:31.221Z,6.00
2022-09-23T11:50:03.339Z,5.23
2022-09-23T11:52:47.001Z,5.10
2022-09-23T11:55:21.494Z,4.88
2022-09-23T11:57:56.866Z,4.63
2022-09-23T12:00:26.615Z,4.57
2022-09-23T12:03:04.544Z,4.67
2022-09-23T12:05:39.002Z,4.35
2022-09-23T12:08:16.280Z,4.35
2022-09-23T12:10:52.848Z,4.10
2022-09-23T12:13:31.271Z,4.68
2022-09-23T12:16:09.934Z,4.27
2022-09-23T12:18:38.894Z,3.90
2022-09-23T12:21:46.273Z,4.20
2022-09-23T12:24:27.017Z,4.13
2022-09-23T12:26:58.881Z,3.88
2022-09-23T12:32:01.244Z,3.53
2022-09-23T12:34:47.849Z,3.15
2022-09-23T12:37:24.099Z,3.30
2022-09-23T12:39:50.663Z,3.20
2022-09-23T12:42:20.517Z,2.90
2022-09-23T12:44:48.780Z,2.90
2022-09-23T12:47:15.034Z,2.65
2022-09-23T12:49:43.617Z,2.90
2022-09-23T12:52:17.184Z,2.83
2022-09-23T12:54:48.300Z,2.70
2022-09-23T12:57:33.196Z,2.75
2022-09-23T13:00:22.443Z,2.78
2022-09-23T13:03:11.369Z,2.50
2022-09-23T13:06:09.794Z,2.78
2022-09-23T13:08:39.077Z,2.90
2022-09-23T13:11:13.353Z,2.50
2022-09-23T13:13:45.816Z,2.80
2022-09-23T13:16:33.055Z,2.67
2022-09-23T13:19:01.537Z,2.90
2022-09-23T13:21:43.164Z,2.57
2022-09-23T13:24:12.436Z,3.13
2022-09-23T13:26:44.717Z,3.25
2022-09-23T13:29:19.186Z,2.88
2022-09-23T13:31:47.377Z,3.10
2022-09-23T13:34:16.323Z,3.50
2022-09-23T13:36:44.913Z,3.15
2022-09-23T13:39:25.340Z,3.20
2022-09-23T13:41:55.627Z,3.70
2022-09-23T13:44:22.304Z,3.58
2022-09-23T13:46:52.036Z,3.33
2022-09-23T13:49:24.497Z,2.97
2022-09-23T13:51:54.010Z,3.47
2022-09-23T13:54:46.238Z,3.53
2022-09-23T13:57:30.693Z,3.38
2022-09-23T14:00:15.200Z,3.50
2022-09-23T14:02:46.793Z,3.35
2022-09-23T14:05:21.660Z,3.30
2022-09-23T14:07:49.716Z,3.50
2022-09-23T14:10:23.232Z,2.97
2022-09-23T14:12:51.199Z,3.60
2022-09-23T14:15:19.448Z,3.53
2022-09-23T14:17:52.285Z,3.47
2022-09-23T14:20:21.492Z,3.13
2022-09-23T14:22:47.981Z,3.28
2022-09-23T14:25:16.670Z,3.37
2022-09-23T14:27:44.827Z,3.13
2022-09-23T14:30:18.481Z,3.80
2022-09-23T14:32:47.776Z,3.30
2022-09-23T14:35:21.989Z,2.92
2022-09-23T14:38:11.701Z,3.07
2022-09-23T14:40:51.569Z,2.58
2022-09-23T14:43:24.857Z,3.20
2022-09-23T14:45:55.232Z,3.20
2022-09-23T14:48:28.330Z,3.13
2022-09-23T14:50:57.606Z,3.27
2022-09-23T14:53:32.867Z,3.05
2022-09-23T14:56:08.334Z,3.38
2022-09-23T14:58:58.909Z,5.00
2022-09-23T15:01:31.807Z,3.85
2022-09-23T15:04:17.998Z,4.90
2022-09-23T15:07:02.258Z,4.32
2022-09-23T15:09:33.024Z,4.88
2022-09-23T15:12:02.218Z,5.38
2022-09-23T15:14:38.409Z,5.90
2022-09-23T15:17:17.229Z,4.87
2022-09-23T15:19:44.068Z,4.90
2022-09-23T15:22:11.038Z,5.40
2022-09-23T15:24:43.264Z,5.07
2022-09-23T15:27:30.900Z,6.00
2022-09-23T15:30:15.407Z,6.20
2022-09-23T15:32:43.624Z,5.55
2022-09-23T15:35:25.504Z,5.15
2022-09-23T15:37:56.058Z,5.40
2022-09-23T15:40:27.575Z,6.07
2022-09-23T15:42:57.043Z,5.93
2022-09-23T15:45:40.229Z,6.15
2022-09-23T15:48:11.670Z,5.65
2022-09-23T15:50:40.344Z,5.53
2022-09-23T15:53:07.060Z,5.97
2022-09-23T15:55:33.756Z,5.53
2022-09-23T15:58:00.484Z,6.20
2022-09-23T16:00:27.096Z,5.25
2022-09-23T16:02:53.993Z,5.57
2022-09-23T16:05:32.990Z,6.32
2022-09-23T16:08:02.812Z,7.30
2022-09-23T16:10:33.947Z,6.20
2022-09-23T16:13:02.132Z,5.80
2022-09-23T16:15:31.327Z,6.00
2022-09-23T16:17:58.862Z,5.60
2022-09-23T16:20:29.531Z,6.37
2022-09-23T16:23:03.937Z,6.55
2022-09-23T16:25:35.825Z,6.78
2022-09-23T16:28:04.322Z,6.35
2022-09-23T16:30:33.107Z,6.32
2022-09-23T16:33:00.851Z,6.50
2022-09-23T16:35:29.034Z,6.20
2022-09-23T16:37:55.525Z,6.13
2022-09-23T16:40:23.469Z,6.32
2022-09-23T16:42:52.305Z,6.20
2022-09-23T16:45:22.882Z,6.57
2022-09-23T16:47:51.296Z,6.45
2022-09-23T16:50:20.613Z,6.10
2022-09-23T16:52:46.974Z,6.65
2022-09-23T16:55:14.337Z,6.30
2022-09-23T16:57:41.821Z,6.10
2022-09-23T17:00:32.456Z,6.78
2022-09-23T17:03:18.035Z,7.28
2022-09-23T17:05:46.783Z,7.07
2022-09-23T17:08:14.696Z,7.57
2022-09-23T17:10:45.624Z,7.83
2022-09-23T17:13:17.284Z,7.90
2022-09-23T17:15:44.046Z,7.93
2022-09-23T17:18:10.453Z,8.15
2022-09-23T17:20:38.605Z,8.55
2022-09-23T17:23:05.483Z,8.57
2022-09-23T17:25:33.912Z,8.93
2022-09-23T17:28:00.770Z,8.65
2022-09-23T17:30:27.475Z,8.82
2022-09-23T17:32:53.784Z,9.57
2022-09-23T17:35:20.499Z,10.03
2022-09-23T17:37:47.544Z,8.95
2022-09-23T17:40:13.983Z,9.80
2022-09-23T17:42:44.570Z,9.50
2022-09-23T17:45:12.380Z,10.05
2022-09-23T17:47:41.705Z,9.37
2022-09-23T17:50:08.569Z,10.50
2022-09-23T17:52:34.976Z,10.45
2022-09-23T17:55:01.318Z,11.65
2022-09-23T17:57:27.744Z,11.75
2022-09-23T17:59:54.045Z,11.57
2022-09-23T18:02:23.291Z,10.77
2022-09-23T18:04:49.757Z,11.75
2022-09-23T18:07:16.303Z,12.77
2022-09-23T18:09:42.660Z,19.42
2022-09-23T18:12:09.048Z,25.73
2022-09-23T18:14:35.379Z,26.38
2022-09-23T18:17:01.755Z,29.88
2022-09-23T18:19:28.067Z,24.75
2022-09-23T18:21:57.093Z,18.65
2022-09-23T18:24:33.180Z,17.67
2022-09-23T18:27:01.016Z,15.57
2022-09-23T18:29:27.581Z,12.70
2022-09-23T18:31:54.099Z,12.18
2022-09-23T18:34:20.579Z,11.50
2022-09-23T18:36:47.038Z,12.10
2022-09-23T18:39:13.434Z,12.65
2022-09-23T18:41:40.898Z,12.15
2022-09-23T18:44:07.350Z,10.80
2022-09-23T18:46:33.809Z,13.48
2022-09-23T18:49:18.973Z,12.80
2022-09-23T18:51:54.473Z,14.25
2022-09-23T18:54:22.340Z,12.85
2022-09-23T18:56:49.876Z,14.10
2022-09-23T18:59:19.404Z,12.52
2022-09-23T19:01:47.267Z,14.67
2022-09-23T19:04:16.934Z,13.95
2022-09-23T19:06:43.324Z,14.32
2022-09-23T19:09:11.884Z,12.88
2022-09-23T19:11:38.881Z,14.32
2022-09-23T19:14:09.859Z,13.97
2022-09-23T19:16:37.697Z,14.35
2022-09-23T19:19:05.359Z,15.85
2022-09-23T19:21:32.867Z,16.00
2022-09-23T19:24:05.180Z,16.17
2022-09-23T19:26:36.608Z,15.13
2022-09-23T19:29:04.439Z,15.52
2022-09-23T19:31:33.908Z,16.50
2022-09-23T19:34:02.785Z,15.45
2022-09-23T19:36:34.430Z,16.05
2022-09-23T19:39:03.124Z,15.00
2022-09-23T19:41:32.089Z,15.48
2022-09-23T19:44:02.923Z,15.52
2022-09-23T19:46:33.900Z,13.65
2022-09-23T19:49:00.887Z,14.20
2022-09-23T19:51:28.195Z,14.23
2022-09-23T19:53:54.513Z,15.20
2022-09-23T19:56:20.869Z,15.15
2022-09-23T19:58:51.385Z,14.40
2022-09-23T20:01:18.708Z,14.32
2022-09-23T20:03:46.822Z,14.30
2022-09-23T20:06:14.503Z,14.45
2022-09-23T20:08:41.298Z,14.68
2022-09-23T20:11:13.232Z,15.02
2022-09-23T20:13:41.008Z,15.63
2022-09-23T20:16:12.107Z,15.17
2022-09-23T20:18:38.957Z,16.33
2022-09-23T20:21:06.612Z,15.70
2022-09-23T20:23:33.081Z,15.73
2022-09-23T20:26:19.578Z,17.35
2022-09-23T20:28:46.518Z,16.30
2022-09-23T20:31:14.163Z,16.02
2022-09-23T20:33:43.769Z,15.68
2022-09-23T20:36:13.111Z,15.48
2022-09-23T20:38:40.355Z,15.73
2022-09-23T20:41:07.292Z,16.60
2022-09-23T20:43:34.454Z,16.40
2022-09-23T20:46:02.847Z,14.93
2022-09-23T20:48:30.479Z,16.30
2022-09-23T20:51:04.967Z,15.85
2022-09-23T20:53:32.252Z,15.60
2022-09-23T20:55:59.448Z,17.58
2022-09-23T20:58:27.647Z,16.40
2022-09-23T21:00:59.116Z,17.75
2022-09-23T21:03:26.516Z,17.23
2022-09-23T21:05:52.829Z,15.87
2022-09-23T21:08:19.507Z,15.45
2022-09-23T21:10:56.749Z,15.77
2022-09-23T21:13:23.480Z,15.85
2022-09-23T21:15:50.143Z,16.48
2022-09-23T21:18:21.704Z,15.70
2022-09-23T21:20:55.978Z,15.57
2022-09-23T21:23:36.265Z,15.90
2022-09-23T21:26:11.067Z,15.75
2022-09-23T21:28:45.497Z,15.57
2022-09-23T21:31:23.903Z,16.97
2022-09-23T21:34:04.955Z,16.15
2022-09-23T21:36:34.455Z,16.05
2022-09-23T21:39:04.328Z,15.93
2022-09-23T21:41:31.711Z,15.85
2022-09-23T21:43:59.245Z,16.40
2022-09-23T21:46:26.692Z,16.00
2022-09-23T21:48:54.928Z,15.25
2022-09-23T21:51:24.681Z,16.30
2022-09-23T21:53:52.784Z,15.77
2022-09-23T21:56:30.228Z,14.83
2022-09-23T21:58:58.336Z,14.95
2022-09-23T22:01:30.202Z,15.00
2022-09-23T22:03:58.832Z,15.38
2022-09-23T22:06:27.538Z,16.25
2022-09-23T22:08:59.714Z,16.27
2022-09-23T22:12:03.742Z,16.08
2022-09-23T22:14:30.537Z,15.25
2022-09-23T22:17:02.627Z,16.38
2022-09-23T22:19:42.693Z,16.42
2022-09-23T22:22:14.714Z,16.10
2022-09-23T22:24:42.280Z,16.00
2022-09-23T22:27:10.193Z,16.63
2022-09-23T22:30:05.854Z,16.45
2022-09-23T22:32:34.797Z,17.17
2022-09-23T22:35:01.130Z,17.23
2022-09-23T22:37:30.441Z,17.05
2022-09-23T22:39:56.942Z,18.17
2022-09-23T22:42:23.619Z,17.08
2022-09-23T22:44:50.885Z,16.60
2022-09-23T22:47:18.331Z,17.50
2022-09-23T22:49:46.073Z,16.88
2022-09-23T22:52:12.526Z,18.80
2022-09-23T22:54:38.952Z,18.73
2022-09-23T22:57:09.004Z,17.52
2022-09-23T22:59:37.141Z,16.80
2022-09-23T23:02:03.749Z,16.52
2022-09-23T23:04:30.434Z,18.15
2022-09-23T23:06:58.544Z,18.48
2022-09-23T23:09:24.922Z,17.33
2022-09-23T23:11:51.236Z,18.70
2022-09-23T23:14:19.009Z,19.73
2022-09-23T23:16:46.295Z,19.85
2022-09-23T23:19:14.724Z,19.48
2022-09-23T23:21:44.766Z,19.58
2022-09-23T23:24:22.482Z,19.73
2022-09-23T23:26:49.538Z,19.85
2022-09-23T23:29:17.552Z,19.15
2022-09-23T23:31:44.461Z,19.90
2022-09-23T23:34:16.181Z,20.05
2022-09-23T23:36:43.729Z,21.67
2022-09-23T23:39:10.935Z,21.55
2022-09-23T23:41:39.382Z,21.25
2022-09-23T23:44:06.367Z,21.45
2022-09-23T23:46:33.774Z,19.55
2022-09-23T23:49:00.664Z,20.90
2022-09-23T23:51:27.975Z,20.73
2022-09-23T23:53:55.298Z,20.02
2022-09-23T23:56:24.093Z,20.80
2022-09-23T23:58:55.762Z,20.58
